Time;durP1;ratioP1;P1;durP2;ratioP2;P2;SDS_P1;SDS_P2;PMS_P1;PMS_P2;Temp;Humidity;BMP_temperature;BMP_pressure;BME280_temperature;BME280_humidity;BME280_pressure;Samples;Min_cycle;Max_cycle;Signal;HPM_P1;HPM_P2
2022/04/12 00:01:04;;;;;;;8.53;5.00;;;7.40;99.90;;;;;;5034100;28;20185;-46
2022/04/12 00:03:30;;;;;;;6.57;4.30;;;7.40;99.90;;;;;;4999827;28;20224;-46
2022/04/12 00:05:56;;;;;;;5.50;4.20;;;7.40;99.90;;;;;;5027569;28;20237;-46
2022/04/12 00:08:22;;;;;;;7.37;4.13;;;7.40;99.90;;;;;;4996137;28;20237;-46
2022/04/12 00:10:48;;;;;;;5.20;4.30;;;7.30;99.90;;;;;;4996453;28;20180;-46
2022/04/12 00:13:14;;;;;;;4.97;4.33;;;7.40;99.90;;;;;;4996524;28;20227;-46
2022/04/12 00:15:40;;;;;;;5.53;4.50;;;7.40;99.90;;;;;;5008092;28;20201;-46
2022/04/12 00:20:53;;;;;;;7.63;4.47;;;7.40;99.90;;;;;;5032238;28;20204;-45
2022/04/12 00:23:19;;;;;;;5.93;4.57;;;7.40;99.90;;;;;;5000325;28;20269;-47
2022/04/12 00:25:45;;;;;;;5.20;4.43;;;7.30;99.90;;;;;;5013948;28;20228;-45
2022/04/12 00:28:12;;;;;;;6.27;4.00;;;7.20;99.90;;;;;;4998808;28;20205;-45
2022/04/12 00:30:38;;;;;;;6.57;4.13;;;7.20;99.90;;;;;;5027670;28;20182;-45
2022/04/12 00:33:04;;;;;;;6.70;4.23;;;7.00;99.90;;;;;;5015367;28;20276;-45
2022/04/12 00:35:30;;;;;;;6.13;4.27;;;6.90;99.90;;;;;;5015766;28;20203;-45
2022/04/12 00:37:56;;;;;;;6.50;4.40;;;6.80;99.90;;;;;;5015504;28;20252;-47
2022/04/12 00:40:26;;;;;;;5.73;4.30;;;6.60;99.90;;;;;;5032540;28;20262;-46
2022/04/12 00:42:53;;;;;;;6.17;4.30;;;6.60;99.90;;;;;;5015614;28;20179;-46
2022/04/12 00:45:20;;;;;;;5.90;4.87;;;6.50;99.90;;;;;;4998882;28;20199;-45
2022/04/12 00:47:46;;;;;;;6.73;4.20;;;6.50;99.90;;;;;;4998918;28;20302;-45
2022/04/12 00:50:13;;;;;;;4.77;3.97;;;6.60;99.90;;;;;;5031336;28;20185;-47
2022/04/12 00:52:44;;;;;;;5.07;4.10;;;6.70;99.90;;;;;;5033212;28;20264;-46
2022/04/12 00:55:11;;;;;;;7.03;4.60;;;6.70;99.90;;;;;;5009260;28;20751;-47
2022/04/12 00:57:37;;;;;;;5.70;4.37;;;6.80;99.90;;;;;;4995520;28;20196;-45
2022/04/12 01:00:06;;;;;;;7.10;4.67;;;6.80;99.90;;;;;;5027598;28;20195;-46
2022/04/12 01:02:33;;;;;;;8.60;4.90;;;6.80;99.90;;;;;;5015566;28;20236;-46
2022/04/12 01:05:03;;;;;;;6.47;4.70;;;6.90;99.90;;;;;;5031631;28;20282;-46
2022/04/12 01:07:30;;;;;;;6.40;4.83;;;6.80;99.90;;;;;;5015250;28;20226;-45
2022/04/12 01:09:58;;;;;;;6.63;4.93;;;6.80;99.90;;;;;;5031243;28;20208;-45
2022/04/12 01:13:18;;;;;;;6.53;4.40;;;6.80;99.90;;;;;;5023153;28;20274;-45
2022/04/12 01:15:44;;;;;;;5.83;4.60;;;6.80;99.90;;;;;;5014700;28;20263;-45
2022/04/12 01:18:10;;;;;;;6.27;4.37;;;6.70;99.90;;;;;;5031502;28;20183;-46
2022/04/12 01:20:36;;;;;;;5.17;4.00;;;6.70;99.90;;;;;;5014724;28;20190;-46
2022/04/12 01:23:09;;;;;;;5.30;3.73;;;6.70;99.90;;;;;;4992331;28;20180;-45
2022/04/12 01:25:38;;;;;;;3.80;3.30;;;6.60;99.90;;;;;;4995038;28;20255;-45
2022/04/12 01:28:06;;;;;;;5.07;3.53;;;6.50;99.90;;;;;;5014480;28;20234;-45
2022/04/12 01:30:32;;;;;;;4.10;3.30;;;6.50;99.90;;;;;;5014622;28;20181;-46
2022/04/12 01:32:58;;;;;;;4.60;4.00;;;6.40;99.90;;;;;;5011660;28;20181;-47
2022/04/12 01:35:24;;;;;;;5.70;3.43;;;6.30;99.90;;;;;;4994603;28;20223;-46
2022/04/12 01:37:49;;;;;;;5.07;3.27;;;6.10;99.90;;;;;;5027735;28;20279;-45
2022/04/12 01:40:15;;;;;;;4.53;3.30;;;6.10;99.90;;;;;;5003936;28;20281;-46
2022/04/12 01:42:41;;;;;;;6.43;4.33;;;6.00;99.90;;;;;;5014395;28;20184;-47
2022/04/12 01:45:08;;;;;;;7.67;4.50;;;6.00;99.90;;;;;;4997984;28;20212;-46
2022/04/12 01:47:35;;;;;;;4.47;3.50;;;5.90;99.90;;;;;;5030388;28;20203;-45
2022/04/12 01:50:01;;;;;;;6.10;3.70;;;5.80;99.90;;;;;;4989731;28;20183;-45
2022/04/12 01:52:27;;;;;;;6.53;3.43;;;5.90;99.90;;;;;;4995065;28;20189;-45
2022/04/12 01:54:53;;;;;;;4.37;3.63;;;6.00;99.90;;;;;;4978509;28;20200;-45
2022/04/12 01:57:19;;;;;;;5.67;4.17;;;5.90;99.90;;;;;;4994762;28;20181;-45
2022/04/12 01:59:45;;;;;;;8.93;3.97;;;5.70;99.90;;;;;;5015198;28;20254;-45
2022/04/12 02:02:11;;;;;;;5.80;3.47;;;5.70;99.90;;;;;;4994601;28;20193;-44
2022/04/12 02:04:36;;;;;;;7.83;4.20;;;5.70;99.90;;;;;;4994273;28;20183;-46
2022/04/12 02:07:03;;;;;;;6.47;3.90;;;5.60;99.90;;;;;;4994504;28;20206;-47
2022/04/12 02:09:29;;;;;;;6.53;4.17;;;5.40;99.90;;;;;;4996169;28;20239;-47
2022/04/12 02:11:55;;;;;;;5.30;3.90;;;5.30;99.90;;;;;;5008070;28;20775;-45
2022/04/12 02:14:22;;;;;;;5.20;3.50;;;5.30;99.90;;;;;;5014037;28;20244;-47
2022/04/12 02:16:48;;;;;;;4.30;3.63;;;5.30;99.90;;;;;;5013724;28;20197;-46
2022/04/12 02:19:14;;;;;;;5.03;3.60;;;5.20;99.90;;;;;;5013274;28;20175;-45
2022/04/12 02:21:39;;;;;;;5.10;3.90;;;5.30;99.90;;;;;;4979047;28;20194;-46
2022/04/12 02:24:06;;;;;;;4.83;4.03;;;5.40;99.90;;;;;;4994454;28;20172;-47
2022/04/12 02:26:32;;;;;;;4.13;3.47;;;5.50;99.90;;;;;;4994464;28;20579;-45
2022/04/12 02:28:57;;;;;;;4.87;3.77;;;5.40;99.90;;;;;;5008559;28;20221;-47
2022/04/12 02:31:23;;;;;;;4.20;3.73;;;5.40;99.90;;;;;;4996825;28;20175;-45
2022/04/12 02:33:49;;;;;;;5.43;3.90;;;5.30;99.90;;;;;;4993846;28;20183;-45
2022/04/12 02:36:15;;;;;;;4.30;3.77;;;5.30;99.90;;;;;;4994224;28;20199;-45
2022/04/12 02:38:41;;;;;;;4.93;3.70;;;5.30;99.90;;;;;;5001766;28;20629;-46
2022/04/12 02:41:06;;;;;;;4.20;3.80;;;5.30;99.90;;;;;;5031373;28;20171;-45
2022/04/12 02:43:32;;;;;;;5.07;4.10;;;5.30;99.90;;;;;;5013607;28;20193;-45
2022/04/12 02:45:58;;;;;;;4.67;3.57;;;5.30;99.90;;;;;;5029698;28;20293;-45
2022/04/12 02:48:24;;;;;;;9.40;3.90;;;5.20;99.90;;;;;;5029737;28;20207;-46
2022/04/12 02:50:51;;;;;;;5.47;3.90;;;5.30;99.90;;;;;;5013404;28;20265;-46
2022/04/12 02:53:16;;;;;;;6.60;3.77;;;5.30;99.90;;;;;;5013702;28;20396;-45
2022/04/12 02:55:42;;;;;;;5.50;3.90;;;5.20;99.90;;;;;;5013437;28;20201;-45
2022/04/12 02:58:08;;;;;;;4.60;3.77;;;5.20;99.90;;;;;;5029049;28;20194;-44
2022/04/12 03:00:34;;;;;;;4.30;3.87;;;5.10;99.90;;;;;;5015763;28;20658;-46
2022/04/12 03:02:59;;;;;;;5.07;4.23;;;4.90;99.90;;;;;;5033916;28;20178;-45
2022/04/12 03:05:25;;;;;;;7.40;3.90;;;4.90;99.90;;;;;;5033723;28;20257;-46
2022/04/12 03:07:51;;;;;;;7.97;4.23;;;4.90;99.90;;;;;;5033602;28;20250;-46
2022/04/12 03:10:17;;;;;;;7.50;3.90;;;5.00;99.90;;;;;;5001816;28;20174;-45
2022/04/12 03:12:43;;;;;;;5.70;4.17;;;5.10;99.90;;;;;;5033704;28;20183;-46
2022/04/12 03:15:10;;;;;;;5.07;3.73;;;5.10;99.90;;;;;;5033384;28;20312;-45
2022/04/12 03:17:36;;;;;;;5.10;3.97;;;5.10;99.90;;;;;;5034699;28;20547;-46
2022/04/12 03:20:03;;;;;;;5.03;3.80;;;5.20;99.90;;;;;;5016599;28;20183;-46
2022/04/12 03:22:29;;;;;;;5.13;3.83;;;5.10;99.90;;;;;;4997670;28;20183;-45
2022/04/12 03:24:57;;;;;;;4.57;3.50;;;5.10;99.90;;;;;;4997052;28;20573;-46
2022/04/12 03:27:23;;;;;;;5.23;4.30;;;5.10;99.90;;;;;;4997533;28;20210;-46
2022/04/12 03:29:49;;;;;;;5.53;3.73;;;5.10;99.90;;;;;;4997435;28;20183;-46
2022/04/12 03:32:14;;;;;;;8.43;4.00;;;5.10;99.90;;;;;;5023065;28;20591;-46
2022/04/12 03:34:41;;;;;;;5.77;4.30;;;5.00;99.90;;;;;;5033218;28;20185;-46
2022/04/12 03:37:07;;;;;;;7.33;4.00;;;5.00;99.90;;;;;;5013595;28;20183;-46
2022/04/12 03:39:33;;;;;;;9.20;5.10;;;5.00;99.90;;;;;;5031340;28;20186;-46
2022/04/12 03:41:59;;;;;;;8.97;4.77;;;4.90;99.90;;;;;;5015584;28;20191;-45
2022/04/12 03:44:25;;;;;;;5.70;4.33;;;4.80;99.90;;;;;;5015882;28;20183;-46
2022/04/12 03:46:51;;;;;;;6.87;4.30;;;4.70;99.90;;;;;;5011236;28;20285;-45
2022/04/12 03:49:17;;;;;;;7.13;4.20;;;4.60;99.90;;;;;;4996308;28;20190;-45
2022/04/12 03:51:42;;;;;;;6.40;4.53;;;4.50;99.90;;;;;;4996734;28;20175;-45
2022/04/12 03:54:08;;;;;;;5.03;3.93;;;4.40;99.90;;;;;;4997123;28;20298;-46
2022/04/12 03:56:37;;;;;;;4.87;4.27;;;4.30;99.90;;;;;;4998025;28;20200;-46
2022/04/12 03:59:03;;;;;;;6.73;4.40;;;4.30;99.90;;;;;;5012823;28;20454;-46
2022/04/12 04:01:29;;;;;;;6.47;4.20;;;4.40;99.90;;;;;;5007370;28;20183;-45
2022/04/12 04:04:03;;;;;;;6.90;4.33;;;4.30;99.90;;;;;;4982200;28;20179;-46
2022/04/12 04:06:30;;;;;;;5.17;4.20;;;4.40;99.90;;;;;;5013831;28;20214;-45
2022/04/12 04:08:55;;;;;;;6.27;4.30;;;4.50;99.90;;;;;;5015431;28;20218;-45
2022/04/12 04:11:21;;;;;;;4.63;4.17;;;4.50;99.90;;;;;;5015445;28;20184;-45
2022/04/12 04:13:47;;;;;;;5.10;3.87;;;4.50;99.90;;;;;;5015575;28;20202;-45
2022/04/12 04:16:13;;;;;;;5.90;4.10;;;4.50;99.90;;;;;;5024187;28;20220;-46
2022/04/12 04:18:39;;;;;;;4.90;4.00;;;4.50;99.90;;;;;;5017642;28;20237;-46
2022/04/12 04:21:05;;;;;;;5.93;4.00;;;4.50;99.90;;;;;;5023209;28;20210;-45
2022/04/12 04:23:30;;;;;;;5.90;3.90;;;4.50;99.90;;;;;;5023846;28;20186;-46
2022/04/12 04:25:56;;;;;;;6.07;3.80;;;4.40;99.90;;;;;;5029441;28;20206;-45
2022/04/12 04:28:22;;;;;;;5.37;4.00;;;4.40;99.90;;;;;;5019762;28;20215;-46
2022/04/12 04:30:49;;;;;;;5.60;4.10;;;4.40;99.90;;;;;;5032298;28;20193;-46
2022/04/12 04:33:19;;;;;;;7.50;4.00;;;4.40;99.90;;;;;;5016040;28;20193;-45
2022/04/12 04:35:46;;;;;;;6.33;4.03;;;4.40;99.90;;;;;;4999307;28;20198;-46
2022/04/12 04:38:12;;;;;;;4.83;3.77;;;4.50;99.90;;;;;;5001513;28;20186;-46
2022/04/12 04:40:39;;;;;;;6.53;3.97;;;4.50;99.90;;;;;;4995937;28;20191;-45
2022/04/12 04:43:06;;;;;;;4.80;3.70;;;4.40;99.90;;;;;;4995996;28;20183;-45
2022/04/12 04:45:31;;;;;;;6.83;4.00;;;4.40;99.90;;;;;;4995946;28;20234;-46
2022/04/12 04:47:59;;;;;;;5.17;3.47;;;4.40;99.90;;;;;;5007231;28;20206;-45
2022/04/12 04:50:29;;;;;;;5.30;3.70;;;4.40;99.90;;;;;;5026003;28;20225;-46
2022/04/12 04:52:56;;;;;;;5.70;3.80;;;4.40;99.90;;;;;;4993372;28;20548;-46
2022/04/12 04:55:22;;;;;;;4.37;3.73;;;4.30;99.90;;;;;;5029285;28;20198;-45
2022/04/12 04:57:52;;;;;;;5.70;4.13;;;4.20;99.90;;;;;;5022693;28;20194;-45
2022/04/12 05:00:19;;;;;;;4.63;3.87;;;4.10;99.90;;;;;;5037264;28;20178;-45
2022/04/12 05:02:47;;;;;;;6.00;4.07;;;4.10;99.90;;;;;;4998705;28;20184;-45
2022/04/12 05:05:14;;;;;;;6.20;4.53;;;4.00;99.90;;;;;;4997115;28;20211;-45
2022/04/12 05:07:41;;;;;;;6.13;3.90;;;4.00;99.90;;;;;;5031080;28;20198;-45
2022/04/12 05:10:09;;;;;;;7.00;4.57;;;4.00;99.90;;;;;;5014965;28;20177;-45
2022/04/12 05:12:35;;;;;;;7.60;4.20;;;4.00;99.90;;;;;;5031648;28;20187;-45
2022/04/12 05:15:00;;;;;;;5.53;4.17;;;4.00;99.90;;;;;;5014665;28;20199;-45
2022/04/12 05:17:28;;;;;;;6.10;4.80;;;4.00;99.90;;;;;;4982975;28;20193;-45
2022/04/12 05:19:56;;;;;;;5.60;4.20;;;4.10;99.90;;;;;;4998560;28;20200;-45
2022/04/12 05:22:23;;;;;;;6.53;4.47;;;4.10;99.90;;;;;;5031113;28;20187;-45
2022/04/12 05:24:49;;;;;;;5.87;4.63;;;4.20;99.90;;;;;;4998305;28;20245;-45
2022/04/12 05:27:16;;;;;;;6.50;4.57;;;4.20;99.90;;;;;;4996665;28;20206;-45
2022/04/12 05:29:42;;;;;;;6.70;4.33;;;4.20;99.90;;;;;;5027844;28;20586;-45
2022/04/12 05:32:09;;;;;;;8.27;4.70;;;4.30;99.90;;;;;;5003590;28;20240;-45
2022/04/12 05:34:45;;;;;;;5.37;3.87;;;4.30;99.90;;;;;;5005135;28;20183;-45
2022/04/12 05:37:11;;;;;;;7.07;3.87;;;4.40;99.90;;;;;;4994774;28;20725;-45
2022/04/12 05:39:37;;;;;;;5.97;4.67;;;4.50;99.90;;;;;;4994699;28;20187;-45
2022/04/12 05:42:03;;;;;;;4.93;4.27;;;4.60;99.90;;;;;;4995074;28;20179;-45
2022/04/12 05:44:32;;;;;;;7.93;4.70;;;4.80;99.90;;;;;;5003236;28;20245;-45
2022/04/12 05:47:03;;;;;;;6.73;4.83;;;4.90;99.90;;;;;;5014365;28;20194;-46
2022/04/12 05:49:29;;;;;;;9.83;5.40;;;5.00;99.90;;;;;;5030439;28;20263;-45
2022/04/12 05:51:56;;;;;;;7.80;5.23;;;5.10;99.90;;;;;;4996930;28;20182;-45
2022/04/12 05:54:23;;;;;;;5.37;4.13;;;5.30;99.90;;;;;;4994891;28;20179;-45
2022/04/12 05:56:48;;;;;;;7.83;4.53;;;5.40;99.90;;;;;;4994927;28;20250;-45
2022/04/12 05:59:14;;;;;;;5.50;4.23;;;5.50;99.90;;;;;;5013839;28;20190;-45
2022/04/12 06:01:41;;;;;;;7.00;4.80;;;5.60;99.90;;;;;;5001119;28;20208;-45
2022/04/12 06:04:07;;;;;;;5.67;4.33;;;5.50;99.90;;;;;;5010471;28;20230;-45
2022/04/12 06:06:34;;;;;;;4.83;4.20;;;5.60;99.90;;;;;;5012177;28;20192;-45
2022/04/12 06:09:00;;;;;;;5.10;4.37;;;5.60;99.90;;;;;;5010477;28;20218;-45
2022/04/12 06:11:26;;;;;;;7.17;4.50;;;5.70;99.90;;;;;;4988105;28;20270;-45
2022/04/12 06:13:53;;;;;;;8.33;5.20;;;5.80;99.90;;;;;;5030659;28;20258;-45
2022/04/12 06:16:19;;;;;;;6.90;4.90;;;5.90;99.90;;;;;;5030216;28;20202;-45
2022/04/12 06:18:45;;;;;;;7.23;4.50;;;6.10;99.90;;;;;;5013441;28;20182;-46
2022/04/12 06:21:10;;;;;;;6.80;5.17;;;6.30;99.90;;;;;;4989676;28;20173;-45
2022/04/12 06:23:36;;;;;;;6.20;5.07;;;6.40;99.90;;;;;;4994354;28;20238;-45
2022/04/12 06:26:02;;;;;;;9.67;6.77;;;6.50;99.90;;;;;;4994476;28;20204;-45
2022/04/12 06:28:29;;;;;;;8.87;6.20;;;6.60;99.90;;;;;;5000909;28;20221;-45
2022/04/12 06:30:57;;;;;;;10.90;6.20;;;6.80;99.90;;;;;;5024866;28;20168;-45
2022/04/12 06:33:24;;;;;;;9.17;6.23;;;6.80;99.90;;;;;;4993889;28;20199;-45
2022/04/12 06:35:50;;;;;;;8.70;5.67;;;6.90;99.90;;;;;;4977477;28;20192;-45
2022/04/12 06:38:15;;;;;;;9.60;6.20;;;7.00;99.90;;;;;;4994176;28;20195;-45
2022/04/12 06:40:44;;;;;;;10.77;6.53;;;7.20;99.90;;;;;;5011342;28;20190;-45
2022/04/12 06:43:11;;;;;;;11.07;5.97;;;7.30;99.90;;;;;;4994024;28;20274;-45
2022/04/12 06:45:38;;;;;;;8.37;6.10;;;7.30;99.90;;;;;;5011491;28;20674;-45
2022/04/12 06:48:04;;;;;;;6.90;4.73;;;7.40;99.90;;;;;;5011260;28;20251;-45
2022/04/12 06:50:30;;;;;;;6.40;4.53;;;7.50;99.90;;;;;;5011376;28;20179;-45
2022/04/12 06:52:57;;;;;;;8.83;4.80;;;7.60;99.90;;;;;;5011824;28;20202;-45
2022/04/12 06:55:23;;;;;;;6.67;4.87;;;7.60;99.90;;;;;;5030168;28;20208;-45
2022/04/12 06:57:49;;;;;;;5.90;4.70;;;7.70;99.90;;;;;;5030009;28;20193;-45
2022/04/12 07:00:17;;;;;;;7.73;5.10;;;8.00;99.90;;;;;;4996793;28;20197;-45
2022/04/12 07:02:43;;;;;;;5.47;4.53;;;8.10;99.90;;;;;;4993656;28;20249;-45
2022/04/12 07:05:10;;;;;;;6.93;4.23;;;8.20;99.90;;;;;;4977804;28;20204;-45
2022/04/12 07:07:40;;;;;;;7.07;4.40;;;8.30;99.90;;;;;;4993972;28;20203;-45
2022/04/12 07:10:09;;;;;;;5.60;4.23;;;8.50;99.90;;;;;;4994181;28;20540;-45
2022/04/12 07:12:36;;;;;;;5.63;4.87;;;8.60;99.90;;;;;;4998784;28;20185;-45
2022/04/12 07:15:03;;;;;;;6.60;4.90;;;8.70;99.90;;;;;;5031033;28;20193;-45
2022/04/12 07:17:29;;;;;;;6.50;4.40;;;8.90;99.90;;;;;;4997102;28;20244;-45
2022/04/12 07:19:55;;;;;;;6.07;4.27;;;9.00;99.90;;;;;;5007548;28;20212;-45
2022/04/12 07:22:21;;;;;;;6.03;4.83;;;9.10;99.90;;;;;;4993760;28;20186;-45
2022/04/12 07:24:47;;;;;;;9.73;4.60;;;9.20;99.90;;;;;;4993713;28;20190;-45
2022/04/12 07:27:13;;;;;;;6.60;4.97;;;9.20;99.90;;;;;;4993720;28;20182;-45
2022/04/12 07:29:39;;;;;;;7.03;4.80;;;9.40;99.90;;;;;;4995632;28;20194;-45
2022/04/12 07:32:05;;;;;;;6.03;4.23;;;9.50;99.90;;;;;;5013198;28;20182;-45
2022/04/12 07:34:31;;;;;;;5.90;4.80;;;9.70;99.90;;;;;;5013041;28;20536;-45
2022/04/12 07:36:58;;;;;;;5.33;4.73;;;9.80;99.90;;;;;;5013340;28;20189;-45
2022/04/12 07:39:24;;;;;;;5.77;4.63;;;9.80;99.90;;;;;;5012629;28;20183;-45
2022/04/12 07:41:51;;;;;;;6.53;4.53;;;10.00;99.90;;;;;;5011169;28;20180;-45
2022/04/12 07:44:19;;;;;;;6.23;3.87;;;10.10;99.90;;;;;;5012303;28;20201;-45
2022/04/12 07:46:45;;;;;;;4.90;4.30;;;10.20;99.90;;;;;;5014020;28;20202;-45
2022/04/12 07:49:12;;;;;;;10.00;4.30;;;10.40;99.90;;;;;;5016523;28;20300;-45
2022/04/12 07:51:39;;;;;;;5.57;4.70;;;10.50;99.90;;;;;;4999987;28;20246;-45
2022/04/12 07:54:06;;;;;;;6.87;3.93;;;10.60;99.90;;;;;;4999981;28;20182;-47
2022/04/12 07:56:33;;;;;;;9.13;4.80;;;10.80;99.90;;;;;;5016442;28;20563;-46
2022/04/12 07:59:00;;;;;;;4.60;4.03;;;10.90;99.90;;;;;;5030932;28;20194;-45
2022/04/12 08:01:26;;;;;;;5.50;4.33;;;11.10;99.90;;;;;;5032999;28;20253;-45
2022/04/12 08:03:52;;;;;;;6.60;4.50;;;11.20;99.90;;;;;;5032981;28;20187;-45
2022/04/12 08:06:17;;;;;;;5.20;4.23;;;11.10;99.90;;;;;;5032877;28;20259;-45
2022/04/12 08:08:44;;;;;;;6.13;4.10;;;11.30;99.90;;;;;;5025053;28;20250;-45
2022/04/12 08:11:10;;;;;;;5.33;4.60;;;11.40;99.90;;;;;;4996032;28;20176;-45
2022/04/12 08:13:36;;;;;;;7.33;4.70;;;11.50;99.90;;;;;;5027959;28;20184;-46
2022/04/12 08:16:03;;;;;;;8.40;4.83;;;11.50;99.90;;;;;;5016214;28;20199;-46
2022/04/12 08:18:29;;;;;;;5.13;4.33;;;11.70;99.90;;;;;;5016025;28;20241;-45
2022/04/12 08:20:55;;;;;;;5.73;4.30;;;11.70;99.90;;;;;;5015905;28;20273;-45
2022/04/12 08:23:25;;;;;;;6.73;4.60;;;11.90;99.90;;;;;;5033839;28;20262;-46
2022/04/12 08:25:52;;;;;;;7.23;4.47;;;12.10;99.90;;;;;;5015604;28;20245;-46
2022/04/12 08:28:18;;;;;;;5.37;4.60;;;12.40;99.90;;;;;;5015167;28;20289;-45
2022/04/12 08:30:44;;;;;;;5.20;4.60;;;12.50;99.90;;;;;;5032136;28;20182;-45
2022/04/12 08:33:10;;;;;;;6.03;4.80;;;12.70;99.90;;;;;;5016015;28;20645;-45
2022/04/12 08:35:37;;;;;;;6.37;4.50;;;12.80;99.90;;;;;;5032189;28;20223;-46
2022/04/12 08:38:03;;;;;;;5.33;4.13;;;13.00;99.90;;;;;;5004174;28;20211;-46
2022/04/12 08:40:29;;;;;;;4.83;4.37;;;13.20;99.90;;;;;;5015185;28;20181;-45
2022/04/12 08:42:56;;;;;;;6.17;4.50;;;13.40;99.90;;;;;;5015736;28;20611;-45
2022/04/12 08:45:22;;;;;;;5.57;4.70;;;13.60;99.90;;;;;;5015707;28;20251;-45
2022/04/12 08:47:51;;;;;;;6.60;4.90;;;13.80;99.90;;;;;;5004763;28;20210;-47
2022/04/12 08:50:18;;;;;;;6.53;5.17;;;13.90;99.90;;;;;;4995994;28;20232;-47
2022/04/12 08:52:45;;;;;;;8.77;5.20;;;14.10;99.90;;;;;;4995371;28;20190;-46
2022/04/12 08:55:12;;;;;;;5.60;4.67;;;14.10;99.90;;;;;;4995732;28;20210;-47
2022/04/12 08:57:38;;;;;;;6.60;5.00;;;14.30;99.90;;;;;;5004621;28;20209;-47
2022/04/12 09:00:06;;;;;;;7.20;5.70;;;14.40;99.90;;;;;;5013405;28;20198;-47
2022/04/12 09:02:33;;;;;;;6.20;5.50;;;14.00;99.90;;;;;;5015359;28;20269;-47
2022/04/12 09:04:59;;;;;;;7.50;5.33;;;13.80;99.90;;;;;;5015201;28;20194;-46
2022/04/12 09:07:27;;;;;;;5.93;4.67;;;14.00;99.90;;;;;;5006324;28;20246;-47
2022/04/12 09:10:03;;;;;;;6.00;5.40;;;14.30;99.90;;;;;;5013012;28;20179;-47
2022/04/12 09:12:34;;;;;;;8.40;5.87;;;14.40;99.90;;;;;;5017790;28;20174;-47
2022/04/12 09:15:00;;;;;;;8.87;5.60;;;14.60;99.90;;;;;;5014888;28;20202;-46
2022/04/12 09:17:34;;;;;;;7.20;4.50;;;14.70;99.90;;;;;;5011426;28;20183;-46
2022/04/12 09:20:00;;;;;;;7.20;6.10;;;14.80;99.90;;;;;;4994873;28;20190;-47
2022/04/12 09:22:28;;;;;;;6.77;5.07;;;15.00;99.90;;;;;;4995117;28;20183;-47
2022/04/12 09:24:56;;;;;;;7.47;5.53;;;15.20;99.90;;;;;;4995488;28;20248;-47
2022/04/12 09:27:25;;;;;;;6.53;5.13;;;15.30;99.90;;;;;;5032599;28;20297;-47
2022/04/12 09:29:56;;;;;;;6.67;5.20;;;15.50;99.90;;;;;;5027457;28;20198;-47
2022/04/12 09:32:23;;;;;;;6.23;5.07;;;15.60;99.90;;;;;;5014633;28;20182;-46
2022/04/12 09:34:50;;;;;;;6.23;5.20;;;15.50;99.90;;;;;;5014246;28;20174;-47
2022/04/12 09:37:24;;;;;;;5.83;5.23;;;15.50;99.90;;;;;;4997845;28;20775;-47
2022/04/12 09:40:00;;;;;;;6.60;4.90;;;15.60;99.90;;;;;;4998228;28;20224;-47
2022/04/12 09:42:51;;;;;;;5.10;4.40;;;15.80;99.90;;;;;;5030780;28;20182;-46
2022/04/12 09:45:24;;;;;;;5.47;4.70;;;16.00;99.90;;;;;;4998072;28;20198;-47
2022/04/12 09:47:55;;;;;;;6.10;4.60;;;16.10;99.90;;;;;;5014262;28;20218;-47
2022/04/12 09:50:22;;;;;;;7.50;4.33;;;16.30;99.90;;;;;;5030658;28;20213;-47
2022/04/12 09:53:02;;;;;;;4.47;4.07;;;16.60;99.90;;;;;;4998068;28;20530;-47
2022/04/12 09:55:52;;;;;;;5.63;4.37;;;16.80;99.90;;;;;;5009982;28;20199;-46
2022/04/12 09:58:21;;;;;;;5.32;3.42;;;16.70;99.90;;;;;;4994882;28;20274;-47
2022/04/12 10:00:47;;;;;;;4.47;3.60;;;16.80;99.90;;;;;;4994508;28;20229;-47
2022/04/12 10:03:15;;;;;;;4.70;3.63;;;17.00;99.90;;;;;;4994608;28;20261;-47
2022/04/12 10:05:42;;;;;;;4.45;3.20;;;17.20;99.90;;;;;;5012192;28;20287;-47
2022/04/12 10:08:14;;;;;;;7.20;3.83;;;17.50;99.90;;;;;;4995151;28;20305;-47
2022/04/12 10:10:45;;;;;;;4.65;3.70;;;17.70;99.90;;;;;;4993851;28;20239;-47
2022/04/12 10:13:13;;;;;;;4.03;3.50;;;17.90;99.90;;;;;;5004598;28;20258;-47
2022/04/12 10:15:40;;;;;;;5.82;3.47;;;18.10;99.90;;;;;;5026740;28;20221;-47
2022/04/12 10:18:06;;;;;;;3.72;3.20;;;18.10;99.90;;;;;;4994662;28;20235;-47
2022/04/12 10:20:31;;;;;;;5.72;3.42;;;18.20;99.90;;;;;;5010274;28;20274;-47
2022/04/12 10:22:59;;;;;;;5.40;3.17;;;18.20;99.80;;;;;;4994621;28;20194;-47
2022/04/12 10:25:26;;;;;;;5.85;2.95;;;18.30;99.10;;;;;;5030033;28;20218;-47
2022/04/12 10:27:56;;;;;;;3.97;3.13;;;18.30;98.90;;;;;;5013907;28;20289;-47
2022/04/12 10:30:28;;;;;;;4.72;3.13;;;18.30;99.50;;;;;;4978055;28;20199;-47
2022/04/12 10:33:05;;;;;;;4.22;3.15;;;18.30;99.30;;;;;;5003651;28;20175;-47
2022/04/12 10:35:46;;;;;;;3.42;2.83;;;18.40;99.10;;;;;;5029972;28;20202;-47
2022/04/12 10:38:14;;;;;;;3.38;3.00;;;18.40;99.10;;;;;;5013724;28;20179;-47
2022/04/12 10:40:53;;;;;;;4.55;3.08;;;18.40;98.40;;;;;;5013366;28;20174;-47
2022/04/12 10:43:23;;;;;;;3.35;2.78;;;18.60;98.70;;;;;;5029858;28;20193;-47
2022/04/12 10:45:50;;;;;;;3.78;3.00;;;18.70;97.60;;;;;;4997071;28;20241;-47
2022/04/12 10:48:21;;;;;;;3.13;2.63;;;18.70;97.80;;;;;;5031118;28;20217;-47
2022/04/12 10:50:50;;;;;;;4.57;2.67;;;18.90;98.70;;;;;;5013289;28;20201;-47
2022/04/12 10:53:36;;;;;;;3.75;2.63;;;19.10;98.60;;;;;;5009993;28;20179;-47
2022/04/12 10:56:10;;;;;;;3.42;2.55;;;19.30;97.80;;;;;;5009603;28;20203;-47
2022/04/12 10:58:36;;;;;;;4.50;2.70;;;19.60;97.00;;;;;;5002578;28;20251;-47
2022/04/12 11:01:04;;;;;;;2.75;2.47;;;19.80;96.80;;;;;;5031131;28;20174;-48
2022/04/12 11:03:41;;;;;;;3.50;2.55;;;20.00;97.60;;;;;;5007857;28;20186;-47
2022/04/12 11:06:14;;;;;;;2.90;2.25;;;20.10;95.90;;;;;;5006554;28;20186;-47
2022/04/12 11:08:43;;;;;;;2.67;2.30;;;20.10;96.00;;;;;;4994441;28;20229;-47
2022/04/12 11:11:10;;;;;;;3.75;3.08;;;20.20;97.20;;;;;;5030619;28;20257;-47
2022/04/12 11:13:36;;;;;;;4.50;2.75;;;20.40;97.20;;;;;;5027203;28;20270;-47
2022/04/12 11:16:10;;;;;;;4.40;2.92;;;20.50;97.80;;;;;;4997073;28;20207;-47
2022/04/12 11:18:51;;;;;;;3.25;2.90;;;20.20;96.80;;;;;;5013105;28;20190;-47
2022/04/12 11:21:24;;;;;;;3.45;2.60;;;20.30;97.30;;;;;;4998790;28;20181;-47
2022/04/12 11:24:00;;;;;;;4.55;2.60;;;20.10;98.30;;;;;;5016884;28;20186;-48
2022/04/12 11:26:37;;;;;;;2.58;2.08;;;20.30;97.40;;;;;;5017136;28;20221;-47
2022/04/12 11:29:14;;;;;;;3.42;2.10;;;20.50;98.20;;;;;;5023321;28;20217;-47
2022/04/12 11:31:51;;;;;;;3.25;1.77;;;20.70;96.20;;;;;;5017259;28;20193;-47
2022/04/12 11:34:18;;;;;;;3.92;1.67;;;20.90;97.10;;;;;;5017069;28;20184;-48
2022/04/12 11:36:54;;;;;;;2.28;1.88;;;21.20;96.00;;;;;;5016874;28;20220;-47
2022/04/12 11:39:25;;;;;;;4.00;2.00;;;21.30;95.20;;;;;;5016659;28;20190;-48
2022/04/12 11:42:03;;;;;;;2.70;1.60;;;21.50;95.00;;;;;;5000292;28;20263;-47
2022/04/12 11:44:30;;;;;;;3.35;1.90;;;21.70;95.10;;;;;;4999116;28;20225;-48
2022/04/12 11:47:08;;;;;;;2.83;1.55;;;21.80;94.00;;;;;;5041519;28;20202;-47
2022/04/12 11:49:41;;;;;;;2.83;2.13;;;22.10;94.80;;;;;;5026034;28;20191;-47
2022/04/12 11:52:13;;;;;;;3.50;2.10;;;22.30;93.40;;;;;;5004441;28;20175;-47
2022/04/12 11:54:41;;;;;;;2.15;1.73;;;22.50;93.50;;;;;;4997973;28;20190;-47
2022/04/12 11:57:12;;;;;;;3.05;1.95;;;22.70;92.30;;;;;;4996710;28;20259;-47
2022/04/12 11:59:44;;;;;;;4.53;2.15;;;22.90;92.20;;;;;;5007559;28;20191;-48
2022/04/12 12:02:10;;;;;;;3.08;1.95;;;23.00;91.00;;;;;;5032207;28;20238;-47
2022/04/12 12:04:37;;;;;;;2.42;1.88;;;23.10;90.30;;;;;;5015703;28;20198;-47
2022/04/12 12:07:06;;;;;;;2.72;1.60;;;23.10;88.90;;;;;;5016502;28;20179;-48
2022/04/12 12:09:34;;;;;;;3.90;1.90;;;23.10;90.10;;;;;;4990102;28;20237;-47
2022/04/12 12:12:09;;;;;;;2.88;1.90;;;23.10;90.80;;;;;;4997340;28;20175;-47
2022/04/12 12:14:36;;;;;;;1.90;1.70;;;23.10;90.80;;;;;;5016121;28;20182;-47
2022/04/12 12:17:09;;;;;;;4.30;1.60;;;23.10;90.80;;;;;;5015675;28;20543;-47
2022/04/12 12:19:39;;;;;;;4.13;1.45;;;23.10;91.30;;;;;;5012664;28;20179;-48
2022/04/12 12:22:07;;;;;;;3.55;1.40;;;23.10;88.10;;;;;;5005448;28;20228;-47
2022/04/12 12:24:52;;;;;;;2.75;1.30;;;23.10;90.30;;;;;;4999311;28;20208;-47
2022/04/12 12:27:31;;;;;;;2.13;1.30;;;23.20;88.10;;;;;;5015178;28;20623;-47
2022/04/12 12:30:09;;;;;;;2.13;1.15;;;23.20;88.50;;;;;;5015116;28;20178;-48
2022/04/12 12:32:38;;;;;;;1.27;1.15;;;23.10;81.60;;;;;;4998389;28;20210;-47
2022/04/12 12:35:12;;;;;;;2.97;1.30;;;23.30;88.00;;;;;;5015430;28;20252;-47
2022/04/12 12:37:41;;;;;;;1.63;1.00;;;23.40;86.00;;;;;;5039655;28;20217;-48
2022/04/12 12:40:21;;;;;;;4.03;1.17;;;23.50;84.10;;;;;;5012789;28;20179;-47
2022/04/12 12:42:48;;;;;;;1.42;1.00;;;23.50;81.10;;;;;;5013253;28;20584;-48
2022/04/12 12:45:18;;;;;;;9.48;1.10;;;23.50;81.30;;;;;;5017685;28;20689;-48
2022/04/12 12:47:47;;;;;;;3.05;0.98;;;23.50;79.30;;;;;;5009460;28;20218;-37
2022/04/12 12:50:19;;;;;;;2.22;0.90;;;23.40;80.60;;;;;;5019469;28;20179;-40
2022/04/12 12:52:47;;;;;;;1.50;0.90;;;23.60;83.70;;;;;;5018570;28;20178;-39
2022/04/12 12:55:23;;;;;;;2.25;1.27;;;23.60;80.50;;;;;;5005754;28;20194;-39
2022/04/12 12:57:52;;;;;;;2.08;1.10;;;23.60;79.40;;;;;;5014794;28;20204;-41
2022/04/12 13:00:21;;;;;;;2.90;0.90;;;23.60;80.60;;;;;;5019329;28;20182;-42